Date,TemperatureHighF,TemperatureAvgF,TemperatureLowF,DewpointHighF,DewpointAvgF,DewpointLowF,HumidityHigh,HumidityAvg,HumidityLow,PressureMaxIn,PressureMinIn,WindSpeedMaxMPH,WindSpeedAvgMPH,GustSpeedMaxMPH,PrecipitationSumIn
2013-1-1,44.5,41.6,37.6,29.9,27.9,24.4,67,58,51,29.94,29.80,5,1,13,0.00
2013-1-2,36.8,31.9,23.9,23.7,17.9,14.1,81,57,41,30.14,29.92,8,1,16,0.00
2013-1-3,35.8,27.6,20.8,21.7,18.8,16.2,88,71,47,30.16,30.06,6,0,11,0.00
2013-1-4,41.8,33.4,23.2,23.4,21.6,20.4,91,64,44,30.11,29.99,18,2,19,0.00
2013-1-5,43.3,35.7,28.8,25.0,22.0,20.5,79,58,44,30.30,30.06,10,1,20,0.00
2013-1-6,51.9,40.1,29.7,35.4,28.7,25.4,93,66,39,30.14,29.94,6,1,15,0.00
2013-1-7,50.2,40.1,25.7,30.1,27.2,23.2,90,62,40,30.36,30.04,17,2,17,0.00
2013-1-8,52.5,35.9,24.4,35.8,28.8,22.4,96,78,47,30.36,30.30,8,1,16,0.01
2013-1-9,53.8,50.3,45.5,45.6,41.8,35.5,79,73,60,30.25,30.13,4,1,14,0.00
2013-1-10,52.3,43.7,33.2,33.7,29.4,27.0,80,58,41,30.50,30.26,9,1,15,0.00
2013-1-11,48.2,41.0,31.5,47.7,37.9,28.6,99,89,74,30.43,30.01,6,1,11,0.11
2013-1-12,61.6,48.1,41.9,49.7,45.4,41.1,99,91,65,30.09,30.00,2,0,9,0.00
2013-1-13,55.3,46.9,40.2,55.3,46.7,39.7,100,100,98,30.08,29.92,6,1,12,0.01
2013-1-14,60.1,54.3,42.5,59.0,49.7,37.9,100,85,64,30.20,29.88,6,2,20,0.12
2013-1-15,42.1,39.0,35.5,40.8,37.7,34.2,98,95,88,30.25,30.09,5,1,11,0.72
2013-1-16,40.9,37.9,35.0,40.4,37.1,33.9,98,97,95,30.08,29.76,6,1,19,0.45
2013-1-17,44.1,40.8,37.2,41.2,35.4,29.7,99,82,61,30.03,29.90,4,0,13,0.02
2013-1-18,37.8,33.1,23.5,31.6,18.8,6.3,80,58,27,30.43,29.96,17,2,23,0.01
2013-1-19,52.3,38.6,28.2,30.8,25.4,15.3,79,60,41,30.38,29.93,11,3,19,0.00
2013-1-20,58.7,45.9,34.6,32.1,26.0,13.7,65,47,27,30.02,29.74,12,3,23,0.00
2013-1-21,41.5,33.8,28.1,29.5,19.3,13.0,92,57,38,30.04,29.71,7,2,19,0.00
2013-1-22,29.0,21.5,16.5,14.4,1.8,-4.1,55,42,29,30.19,29.81,13,5,28,0.00
2013-1-23,24.5,18.2,12.3,2.0,-0.5,-4.0,60,44,29,30.25,30.12,13,3,18,0.00
2013-1-24,21.6,18.9,16.7,3.3,2.0,0.5,55,47,39,30.40,30.37,1,0,5,0.00
2013-1-25,17.0,16.3,15.1,6.8,3.8,2.7,66,57,53,30.40,30.36,1,0,4,0.00
2013-1-26,15.6,14.6,14.1,12.9,12.0,11.5,89,89,89,30.02,30.02,0,0,0,0.00
2013-1-27,38.2,30.2,21.4,17.8,16.6,14.7,81,59,40,30.50,30.42,6,1,12,0.01
2013-1-28,39.9,34.3,22.1,36.2,30.5,17.5,93,86,75,30.44,29.97,7,2,16,0.08
2013-1-29,65.5,46.9,31.9,51.3,41.9,31.1,99,84,60,30.06,29.95,6,1,12,0.01
2013-1-30,70.6,61.5,50.5,59.6,55.3,47.4,89,81,65,29.93,29.48,16,7,39,0.00
2013-1-31,50.5,41.1,30.7,36.3,19.5,10.9,58,42,31,29.83,29.28,17,7,32,0.53
2013-2-1,30.6,26.9,20.2,25.9,12.6,4.0,93,56,40,30.27,29.74,22,4,26,0.09
2013-2-2,30.6,21.9,11.2,24.7,9.0,3.7,92,59,34,30.30,29.96,6,2,18,0.00
2013-2-3,36.6,29.0,22.7,27.2,23.1,19.9,95,80,56,29.95,29.76,5,0,18,0.04
2013-2-4,32.9,29.4,24.2,22.8,14.9,8.9,68,54,47,30.02,29.82,9,2,20,0.00
2013-2-5,40.5,34.4,28.5,30.9,27.3,22.9,90,76,63,29.85,29.77,4,0,7,0.00
2013-2-6,44.5,35.0,25.4,31.8,26.5,21.2,95,73,46,30.28,29.85,13,2,21,0.00
2013-2-7,38.9,31.6,22.1,27.3,22.9,19.8,92,72,47,30.38,30.14,11,2,19,0.00
2013-2-8,41.9,38.1,34.4,41.4,35.3,25.0,98,90,68,30.13,29.58,9,2,23,0.46
2013-2-9,38.0,31.7,25.7,28.5,18.6,15.1,76,59,45,30.30,29.75,18,6,34,0.00
2013-2-10,44.8,31.4,16.9,27.1,17.2,11.4,86,59,28,30.42,30.22,5,1,11,0.00
2013-2-11,55.9,48.2,35.2,54.2,45.6,28.1,99,91,74,30.21,29.62,12,3,20,0.26
2013-2-12,54.5,45.2,33.5,42.6,30.7,27.6,86,59,37,29.91,29.70,15,2,24,0.00
2013-2-13,47.9,37.0,28.5,36.8,29.9,24.9,97,77,52,29.88,29.57,12,1,17,0.27
2013-2-14,49.8,37.1,29.5,37.0,31.2,27.1,98,82,46,29.96,29.65,5,1,14,0.11
2013-2-15,60.2,43.8,30.7,40.2,33.3,29.2,99,71,34,29.96,29.83,9,1,17,0.00
2013-2-16,39.5,35.7,31.6,35.0,31.9,21.4,94,86,65,29.93,29.71,7,2,13,0.04
2013-2-17,33.4,29.2,25.0,20.2,12.1,3.3,63,49,34,30.07,29.70,14,5,26,0.00
2013-2-18,38.8,28.9,21.3,19.5,8.4,3.6,59,42,28,30.28,30.08,11,3,20,0.00
2013-2-19,46.8,40.8,32.2,45.5,33.6,19.1,96,76,58,30.11,29.64,12,4,22,0.14
2013-2-20,38.0,33.2,26.0,26.5,16.3,9.4,63,50,41,30.03,29.74,16,5,26,0.00
2013-2-21,38.6,29.9,23.5,17.1,13.6,10.6,63,51,39,30.20,30.00,12,4,27,0.00
2013-2-22,36.6,32.0,26.7,34.0,23.7,16.4,96,72,61,30.31,30.16,8,1,15,0.09
2013-2-23,46.5,42.3,35.2,46.5,42.0,34.2,100,99,96,30.15,29.71,5,1,13,0.14
2013-2-24,51.4,42.0,32.9,43.0,33.4,20.2,99,75,40,29.99,29.69,14,3,25,0.00
2013-2-25,50.4,36.9,27.3,27.1,23.5,19.4,87,60,39,30.14,29.99,4,1,12,0.00
2013-2-26,47.6,37.0,24.7,47.1,33.1,23.0,98,86,70,30.14,29.57,20,5,34,0.60
2013-2-27,56.0,50.0,44.2,49.8,42.5,35.2,100,78,48,29.62,29.39,12,3,19,0.02
2013-2-28,50.4,42.9,37.6,39.1,31.8,24.8,90,67,41,29.62,29.52,8,2,20,0.09
2013-3-1,45.8,39.9,34.4,31.9,29.9,27.5,79,68,49,29.76,29.60,6,2,18,0.00
2013-3-2,39.2,36.6,34.0,28.7,24.1,21.2,75,61,48,29.77,29.69,8,2,18,0.00
2013-3-3,39.3,34.3,30.7,22.2,20.1,16.5,68,56,46,29.77,29.67,10,4,23,0.00
2013-3-4,42.9,34.8,28.2,20.5,18.2,15.2,63,51,39,29.92,29.77,17,4,27,0.00
2013-3-5,50.2,36.5,23.0,29.5,23.6,18.2,85,61,39,29.99,29.79,7,2,12,0.00
2013-3-6,39.9,38.5,36.5,38.0,35.5,31.3,95,89,72,29.81,29.47,22,8,33,1.34
2013-3-7,46.2,42.5,36.6,30.4,26.7,23.9,73,54,46,30.02,29.81,13,5,25,0.00
2013-3-8,45.5,39.7,34.3,28.7,24.7,20.5,77,55,49,30.14,29.99,19,6,28,0.00
2013-3-9,61.3,45.0,32.2,28.2,24.3,21.5,75,47,24,30.23,30.12,6,2,16,0.00
2013-3-10,56.9,41.1,26.1,36.6,30.5,23.6,96,70,32,30.28,30.19,11,3,17,0.00
2013-3-11,64.0,50.8,38.3,49.1,44.7,37.5,100,82,55,30.22,29.96,12,4,19,0.00
2013-3-12,50.4,47.3,44.2,43.8,39.9,36.1,78,76,73,29.82,29.76,0,0,7,0.00
2013-3-13,49.5,45.9,42.3,32.6,22.7,18.7,52,40,31,29.88,29.81,6,3,16,0.01
2013-3-16,49.9,41.3,32.2,37.4,33.2,28.8,89,73,60,29.85,29.60,11,2,21,0.00
2013-3-17,41.5,37.5,34.3,33.0,27.5,22.5,88,68,55,30.20,29.85,8,1,14,0.00
2013-3-18,43.9,38.8,34.9,43.6,31.0,18.4,99,75,50,30.26,29.74,12,3,22,0.47
2013-3-19,57.3,44.8,39.1,45.2,36.6,18.2,100,77,34,29.82,29.64,12,2,20,0.07
2013-3-20,51.3,41.0,29.3,27.5,19.8,13.3,74,46,22,29.90,29.69,15,3,21,0.00
2013-3-21,38.8,34.4,29.0,26.4,18.2,9.4,81,52,34,29.76,29.62,9,2,24,0.00
2013-3-22,44.9,35.3,28.4,20.4,17.4,12.4,65,48,33,29.92,29.76,10,3,21,0.00
2013-3-23,50.7,38.2,23.9,24.6,21.7,19.0,82,54,32,29.93,29.83,10,2,24,0.00
2013-3-24,44.6,35.6,25.0,30.8,23.9,20.9,88,65,41,29.90,29.57,7,1,17,0.00
2013-3-25,36.3,34.3,32.7,34.1,33.0,31.1,98,95,84,29.59,29.36,10,1,14,0.74
2013-3-26,50.8,41.2,32.1,35.0,31.2,24.8,98,71,37,29.85,29.60,7,2,14,0.25
2013-3-27,50.8,43.3,36.5,31.4,28.3,24.4,74,57,36,30.00,29.85,10,3,23,0.00
2013-3-28,50.8,42.7,34.3,31.7,28.8,26.5,80,59,43,30.10,29.97,10,2,21,0.00
2013-3-29,55.9,44.9,34.0,31.3,28.2,25.7,79,54,33,30.14,30.05,9,2,19,0.00
2013-3-30,61.6,45.6,29.4,37.2,28.4,24.4,95,58,24,30.15,30.05,7,1,21,0.00
2013-3-31,58.1,48.6,36.6,51.4,41.4,31.2,98,77,50,30.08,29.67,13,4,27,0.05
2013-4-1,66.0,51.0,39.5,49.9,37.1,17.4,100,63,37,29.89,29.63,11,3,22,0.01
2013-4-2,48.9,39.3,25.1,27.6,17.2,13.7,85,44,26,30.07,29.90,13,4,22,0.00
2013-4-3,50.5,40.6,27.5,19.0,15.2,10.0,70,38,21,30.28,30.08,14,4,22,0.00
2013-4-4,52.9,37.9,23.3,35.0,20.8,14.8,89,53,23,30.33,30.02,6,1,12,0.05
2013-4-5,65.6,47.7,36.9,42.3,33.1,18.1,98,65,22,30.01,29.71,10,2,20,0.73
2013-4-6,59.6,46.4,37.0,28.1,21.5,17.4,63,39,23,30.26,29.96,9,2,17,0.00
2013-4-7,64.0,51.0,35.0,44.6,36.5,29.3,86,60,37,30.23,29.95,15,6,32,0.00
2013-4-8,79.8,65.7,51.4,53.6,47.9,43.6,77,55,32,30.01,29.92,6,2,15,0.00
2013-4-9,84.9,71.9,61.5,54.7,52.7,51.3,70,52,33,30.00,29.88,10,2,15,0.00
2013-4-10,88.8,75.1,64.8,56.5,54.7,53.6,67,51,31,29.89,29.73,11,3,19,0.00
2013-4-11,84.5,66.6,51.1,59.7,55.6,49.7,95,70,42,29.84,29.77,19,5,28,0.00
2013-4-12,67.9,54.9,48.6,67.6,54.7,48.3,100,99,97,29.79,29.54,12,3,18,1.40
2013-4-13,65.5,49.3,40.2,50.1,43.9,38.8,100,85,38,29.86,29.65,6,2,16,0.00
2013-4-14,66.9,53.8,38.9,49.2,38.8,32.0,99,64,29,30.08,29.87,12,2,19,0.00
2013-4-15,59.9,55.0,50.8,47.8,45.3,38.5,81,70,56,30.25,30.07,11,4,21,0.00
2013-4-16,74.9,62.8,50.1,56.6,52.2,46.4,89,70,50,30.23,30.06,14,4,21,0.00
2013-4-17,79.6,64.9,55.9,61.0,55.1,47.7,93,72,53,30.18,30.05,9,2,16,0.00
2013-4-18,74.9,62.7,55.1,62.1,55.2,49.0,94,78,47,30.19,29.98,13,4,20,0.01
2013-4-19,78.5,68.4,60.7,65.3,61.9,58.2,97,81,59,29.97,29.57,21,8,33,0.44
2013-4-20,61.8,52.9,46.1,55.9,38.4,27.1,98,63,30,30.23,29.68,13,3,19,0.31
2013-4-21,57.0,45.3,31.9,32.9,27.4,22.2,87,53,27,30.52,30.23,7,1,15,0.00
2013-4-22,55.3,44.5,31.0,40.3,35.3,30.0,98,72,48,30.51,30.34,11,2,22,0.01
2013-4-23,59.5,50.1,43.9,44.3,40.8,37.1,84,71,56,30.33,30.07,13,2,18,0.00
2013-4-24,72.7,56.6,38.0,55.3,48.8,37.2,100,78,53,30.06,29.75,13,3,25,0.00
2013-4-25,67.6,55.2,40.6,54.4,35.8,27.2,86,51,24,30.21,29.83,10,2,27,0.00
2013-4-26,69.1,52.8,35.5,42.6,35.2,29.8,98,59,24,30.35,30.20,5,1,15,0.00
2013-4-27,71.6,48.5,35.0,42.8,36.4,33.0,98,71,26,30.35,30.29,4,0,11,0.00
2013-4-29,57.6,55.5,54.2,56.5,54.8,53.7,98,98,96,30.06,30.02,9,3,13,0.73
2013-4-30,63.9,56.7,52.8,56.0,52.0,44.6,99,86,52,30.21,30.03,12,3,24,0.23
2013-5-1,69.4,53.7,44.5,47.5,42.6,35.8,95,70,29,30.36,30.21,10,2,21,0.00
2013-5-2,69.6,55.6,42.9,49.2,44.8,40.0,98,71,36,30.37,30.26,6,1,17,0.00
2013-5-3,60.5,51.1,41.2,48.9,42.4,40.4,99,75,50,30.33,30.25,13,3,24,0.00
2013-5-4,68.3,54.1,41.8,47.1,42.8,40.1,98,69,39,30.25,30.14,13,4,21,0.00
2013-5-5,62.7,51.1,42.1,46.0,41.9,38.8,93,72,48,30.17,30.10,8,2,18,0.00
2013-5-6,63.1,53.9,43.3,56.5,51.4,41.7,99,92,76,30.11,30.02,10,2,17,0.00
2013-5-7,63.9,59.1,55.6,61.7,58.5,55.3,100,98,88,30.03,29.89,8,3,17,0.30
2013-5-8,74.0,63.7,56.0,60.2,55.8,50.8,100,79,47,29.94,29.86,7,1,13,0.03
2013-5-9,74.4,63.1,51.9,58.4,56.5,51.6,100,81,52,29.91,29.83,7,1,15,1.27
2013-5-10,85.3,70.6,53.5,63.3,57.0,53.2,100,67,34,29.94,29.81,6,1,12,0.00
2013-5-11,79.2,67.9,62.3,68.7,64.1,61.0,99,89,61,29.89,29.64,14,3,20,0.97
2013-5-12,66.8,61.7,52.2,61.8,46.6,29.1,100,64,28,29.89,29.63,11,2,20,0.17
2013-5-13,61.8,53.0,37.2,40.6,30.3,25.4,94,46,27,30.06,29.95,11,2,19,0.00
2013-5-14,62.9,49.5,32.1,47.3,34.8,26.2,99,64,28,30.11,30.00,6,1,17,0.03
2013-5-15,78.8,64.2,49.4,62.4,54.4,46.1,92,72,51,30.03,29.63,8,2,21,0.07
2013-5-16,85.3,74.5,63.4,64.4,61.2,58.8,94,65,43,29.80,29.65,6,1,14,0.00
2013-5-17,87.0,71.3,54.8,58.7,50.4,40.8,95,54,26,30.09,29.81,3,0,11,0.00
2013-5-18,71.8,63.0,57.0,58.7,54.3,49.2,98,75,51,30.19,30.10,12,1,15,0.10
2013-5-19,73.0,64.6,59.3,65.5,62.2,58.7,99,93,77,30.15,30.05,9,1,15,0.10
2013-5-20,83.0,71.9,64.2,68.7,66.5,63.6,100,85,60,30.06,29.92,7,1,13,0.01
2013-5-21,83.4,73.7,66.6,69.3,67.5,66.0,98,82,60,29.94,29.82,6,1,14,0.00
2013-5-22,85.7,74.6,68.8,71.3,69.2,67.2,97,84,62,29.88,29.79,7,2,16,0.00
2013-5-23,81.1,74.8,68.8,69.0,67.1,61.7,90,78,62,29.85,29.71,13,4,20,0.00
2013-5-24,67.8,58.4,49.1,64.7,53.3,37.9,99,84,61,30.00,29.66,11,3,25,0.30
2013-5-25,66.3,54.9,44.2,42.4,37.5,34.3,90,54,32,30.03,29.96,10,2,27,0.00
2013-5-26,73.7,56.9,40.2,45.5,39.9,36.0,96,59,26,30.12,30.02,7,1,21,0.00
2013-5-27,77.4,60.2,41.8,55.5,45.0,37.6,99,64,27,30.20,30.11,2,0,8,0.00
2013-5-28,77.2,63.0,55.0,68.7,58.7,51.8,96,86,71,30.14,30.01,5,0,12,0.12
2013-5-29,90.1,78.1,67.3,68.5,65.9,63.2,91,69,42,30.06,30.00,6,1,14,0.00
2013-5-30,91.8,76.6,68.6,69.9,66.4,64.6,88,72,43,30.11,30.03,2,0,9,0.00
2013-5-31,91.6,79.1,66.6,69.1,66.4,62.7,98,69,39,30.09,29.97,9,2,17,0.00
2013-6-1,91.0,79.4,68.1,70.4,67.9,65.3,95,70,48,29.99,29.87,11,2,18,0.00
2013-6-2,88.4,78.4,68.8,69.8,68.3,67.1,97,73,53,29.87,29.76,10,2,24,0.39
2013-6-3,82.6,72.1,66.3,70.9,68.2,65.1,98,89,59,29.83,29.73,3,0,13,0.25
2013-6-4,80.7,68.0,54.5,65.4,52.8,44.7,98,64,30,30.04,29.83,5,0,13,0.01
2013-6-5,84.5,65.6,48.6,59.9,50.2,43.9,100,65,28,30.11,30.01,5,0,12,0.00
2013-6-6,77.7,66.0,51.7,65.2,57.7,50.6,99,77,49,30.04,29.84,10,2,17,0.08
2013-6-7,71.1,68.6,64.8,70.8,68.2,64.8,100,99,97,29.83,29.45,6,2,22,3.49
2013-6-8,81.2,70.0,63.1,67.6,65.3,61.9,100,87,57,30.01,29.52,11,1,14,0.03
2013-6-9,87.2,73.0,61.5,70.3,64.3,60.2,100,77,48,30.13,30.01,9,0,12,0.00
2013-6-10,79.2,73.0,66.8,76.4,70.6,64.5,99,93,79,30.06,29.75,9,2,19,1.14
2013-6-11,84.0,76.1,67.9,70.6,66.7,63.9,98,75,53,29.75,29.66,9,1,18,0.00
2013-6-12,88.8,76.4,66.8,69.8,67.1,64.4,95,75,52,29.78,29.74,4,1,15,0.02
2013-6-13,87.6,72.7,66.6,72.2,67.7,61.4,98,86,51,29.76,29.36,10,2,25,1.64
2013-6-14,79.8,66.3,56.9,61.0,56.8,52.2,97,74,44,29.87,29.45,11,2,18,0.22
2013-6-15,84.9,70.2,54.5,64.6,58.4,54.2,100,71,39,29.99,29.88,2,0,13,0.00
2013-6-16,84.0,71.1,58.9,69.8,64.3,58.3,99,82,49,29.95,29.79,6,1,15,0.06
2013-6-17,88.6,76.0,65.6,72.7,67.4,64.0,99,77,49,29.89,29.81,6,0,12,0.02
2013-6-18,84.0,68.5,61.2,74.8,66.4,60.9,99,94,72,29.86,29.72,4,0,17,2.44
2013-6-19,84.5,69.0,56.5,64.1,59.9,54.3,100,77,38,30.09,29.79,4,0,11,0.01
2013-6-20,82.0,67.2,53.1,61.7,54.7,52.0,100,69,39,30.21,30.10,10,1,12,0.00
2013-6-21,85.5,68.5,51.1,62.7,55.9,50.8,100,69,34,30.24,30.18,7,1,13,0.00
2013-6-22,91.8,73.6,56.0,68.7,61.7,55.7,100,70,44,30.19,30.09,5,1,13,0.00
2013-6-23,82.6,72.0,61.6,76.8,68.2,60.7,98,88,69,30.13,30.01,6,1,13,0.70
2013-6-24,92.7,80.2,71.3,75.1,71.8,67.6,99,78,44,30.06,29.94,4,0,15,0.00
2013-6-25,93.6,80.9,68.1,72.9,70.3,67.5,99,73,45,29.95,29.81,7,0,14,0.01
2013-6-26,95.1,80.0,67.3,75.8,69.4,65.6,98,73,45,29.85,29.72,4,0,15,0.26
2013-6-27,88.2,77.1,69.4,75.5,72.0,69.1,100,86,60,29.75,29.52,13,2,19,0.53
2013-6-28,89.3,78.0,67.9,73.9,70.1,66.7,98,79,53,29.55,29.42,6,1,17,0.13
2013-6-29,88.8,77.9,66.8,74.4,68.5,60.8,99,76,41,29.63,29.45,4,0,16,0.00
2013-6-30,85.9,76.8,73.2,76.4,73.4,70.4,99,90,68,29.72,29.63,6,1,17,0.00
2013-7-1,75.4,74.7,73.3,74.8,73.7,72.3,98,97,95,29.89,29.85,4,1,11,0.26
2013-7-2,79.2,72.9,71.6,73.3,71.5,69.8,98,96,73,30.13,30.08,6,2,14,0.90
2013-7-3,90.7,79.2,71.3,75.4,73.0,70.6,98,83,58,30.18,30.11,7,2,15,0.01
2013-7-4,90.3,80.6,73.3,75.9,72.9,71.3,99,79,55,30.20,30.12,6,1,15,0.00
2013-7-5,90.1,81.1,72.7,73.8,72.3,71.2,98,77,56,30.17,30.06,9,2,15,0.00
2013-7-6,93.4,82.7,75.3,76.4,74.1,71.7,98,78,51,30.12,30.00,4,1,15,0.00
2013-7-7,91.4,81.0,71.6,75.1,72.4,69.0,98,77,55,30.04,29.92,6,1,16,0.00
2013-7-8,87.6,76.5,69.3,73.0,69.9,67.0,98,82,53,30.02,29.95,6,0,14,0.00
2013-7-9,88.2,79.0,70.8,74.7,72.1,69.4,98,81,60,30.02,29.94,3,0,12,0.00
2013-7-10,90.3,81.4,74.4,76.2,73.2,70.3,98,78,52,29.95,29.79,7,1,13,0.00
2013-7-11,89.5,76.9,71.8,74.9,72.2,69.0,98,87,51,29.84,29.77,3,0,9,0.76
2013-7-12,73.2,71.3,69.1,72.7,70.9,68.5,99,98,97,29.92,29.81,4,0,15,3.71
2013-7-13,89.9,76.6,70.1,77.8,73.3,69.8,100,90,59,30.21,29.92,5,0,11,0.21
2013-7-14,94.7,80.4,72.8,77.7,74.4,70.5,99,84,53,30.27,30.20,2,0,13,0.00
2013-7-15,97.3,82.2,68.9,76.6,73.4,68.6,99,78,47,30.23,30.10,5,0,7,0.00
2013-7-16,99.0,85.5,74.6,77.7,72.8,66.7,98,70,37,30.14,30.07,6,1,13,0.00
2013-7-17,104.9,86.6,70.9,77.3,72.5,67.7,99,69,32,30.12,30.02,3,0,9,0.00
2013-7-18,101.2,85.7,74.0,78.6,75.5,73.4,98,75,48,30.03,29.92,3,0,10,0.00
2013-7-19,96.3,86.7,77.9,77.6,75.6,70.9,95,72,45,29.94,29.81,9,1,16,0.00
2013-7-21,97.5,82.6,71.1,74.4,72.0,70.1,98,74,42,29.87,29.80,1,0,8,0.04
2013-7-22,94.7,79.9,71.6,77.2,74.1,71.0,98,84,52,29.85,29.69,6,0,9,0.00
2013-7-23,89.9,79.9,71.5,77.8,73.2,70.3,99,82,55,29.69,29.54,4,0,14,0.69
2013-7-24,88.0,77.2,68.4,72.4,68.8,65.9,99,78,54,29.81,29.59,5,0,12,0.01
2013-7-25,78.5,69.9,62.6,63.6,60.6,55.0,90,73,58,29.95,29.86,5,1,10,0.00
2013-7-26,89.3,74.4,61.6,66.6,62.0,59.9,97,70,38,30.00,29.94,5,0,11,0.00
2013-7-27,87.2,74.7,64.3,69.8,65.9,61.9,99,77,51,29.99,29.88,5,1,13,0.00
2013-7-28,85.3,74.7,68.3,76.5,70.1,64.9,97,86,61,29.89,29.81,6,0,14,0.15
2013-7-29,87.8,75.0,61.2,70.5,62.9,55.6,99,72,35,30.07,29.88,4,0,12,0.01
2013-7-30,88.0,72.0,56.3,65.0,59.6,55.7,100,70,34,30.14,30.07,3,0,9,0.00
2013-7-31,87.6,72.6,60.2,69.6,64.1,59.6,100,78,47,30.08,29.97,1,0,11,0.00
2013-8-1,76.0,70.7,66.8,72.4,68.9,62.9,99,94,83,29.96,29.75,9,1,15,1.47
2013-8-2,87.6,73.6,64.0,72.1,65.9,61.0,100,80,41,29.89,29.75,5,0,11,0.01
2013-8-3,83.6,71.5,65.8,72.4,67.2,63.6,100,87,56,29.89,29.83,4,0,10,0.05
2013-8-4,85.1,71.9,58.9,65.8,60.6,54.0,100,73,40,29.92,29.80,12,1,19,0.01
2013-8-5,85.3,68.7,55.4,62.7,58.0,53.6,99,74,37,30.03,29.93,2,0,10,0.00
2013-8-6,71.5,65.1,59.3,66.6,63.4,58.7,99,94,79,30.03,29.96,5,1,15,0.15
2013-8-7,83.2,72.0,63.2,72.8,67.8,62.6,98,88,65,30.03,29.95,6,1,14,0.21
2013-8-8,87.4,77.2,72.3,73.8,70.9,66.6,95,82,59,29.98,29.93,6,2,17,0.00
2013-8-9,89.9,80.1,74.7,78.8,74.8,72.3,97,85,63,29.93,29.78,9,2,16,0.78
2013-8-10,88.4,77.3,66.9,74.5,68.9,64.5,97,78,47,30.00,29.85,1,0,7,0.01
2013-8-11,86.3,73.4,63.4,71.2,66.9,62.8,99,83,52,30.05,29.95,8,1,11,0.00
2013-8-12,92.9,77.5,66.1,74.4,70.2,65.8,99,81,46,29.97,29.85,4,0,9,0.00
2013-8-13,88.2,77.6,69.9,76.1,71.6,68.8,98,83,55,29.84,29.67,5,0,19,0.54
2013-8-14,78.6,69.0,56.9,68.0,56.9,50.6,98,69,43,30.00,29.71,5,1,21,0.26
2013-8-15,82.8,66.3,52.5,58.8,53.5,48.2,100,70,30,30.11,30.00,4,0,10,0.00
2013-8-16,84.1,64.9,50.2,62.7,54.8,48.5,100,76,29,30.13,30.06,5,0,10,0.00
2013-8-17,80.9,61.4,54.1,63.2,57.1,53.8,100,88,45,30.18,30.12,7,0,14,0.00
2013-8-18,77.9,68.5,62.7,66.0,63.7,61.5,97,86,63,30.15,30.07,5,0,14,0.03
2013-8-19,77.4,68.7,60.4,66.7,63.8,59.4,99,85,66,30.10,30.00,4,0,11,0.00
2013-8-20,92.3,74.8,60.5,70.9,66.5,60.2,100,79,44,30.09,30.01,0,0,6,0.01
2013-8-21,89.7,77.5,66.6,76.3,69.9,66.0,99,80,52,30.12,30.01,4,0,11,0.00
2013-8-22,91.0,78.6,71.1,73.6,71.5,68.5,98,81,51,30.02,29.85,10,1,15,0.07
2013-8-26,82.4,75.7,71.5,66.2,65.5,64.3,83,71,58,29.97,29.92,0,0,10,0.00
2013-8-27,94.7,79.1,69.6,72.7,68.8,65.6,96,74,42,29.91,29.80,5,0,14,0.01
2013-8-28,88.2,75.6,69.4,75.8,71.5,68.8,99,88,57,29.84,29.75,10,0,11,0.14
2013-8-29,86.1,74.9,65.5,73.1,69.7,64.3,98,85,58,29.95,29.77,6,1,13,0.13
2013-8-30,84.5,71.1,63.4,70.4,66.9,62.8,99,88,60,29.97,29.83,7,1,14,0.00
2013-8-31,88.6,78.0,68.8,72.9,70.4,68.2,99,79,56,29.85,29.74,11,2,15,0.00
2013-9-1,91.4,80.0,71.6,73.8,72.3,69.9,98,79,51,29.78,29.69,4,0,12,0.00
2013-9-2,85.3,76.1,73.0,74.1,73.0,71.4,97,91,68,29.72,29.68,3,0,11,0.00
2013-9-3,89.0,79.2,62.4,66.0,62.2,59.7,91,60,38,29.85,29.73,4,1,11,0.00
2013-9-4,61.2,59.2,57.5,59.2,57.9,56.7,97,96,93,29.89,29.86,0,0,0,0.00
2013-9-6,81.1,69.6,51.9,54.6,50.9,47.6,96,58,31,30.09,30.06,2,0,7,0.00
2013-9-7,85.3,61.5,46.1,61.9,52.6,45.8,100,78,32,30.07,29.86,4,0,11,0.00
2013-9-8,91.2,73.1,59.2,66.9,63.5,57.6,98,76,44,29.97,29.78,7,1,15,0.00
2013-9-9,77.4,67.1,55.4,65.2,58.5,49.7,93,75,60,30.13,29.98,10,1,13,0.00
2013-9-10,91.6,77.9,67.9,73.2,70.2,65.5,97,79,53,30.12,30.02,10,1,15,0.00
2013-9-11,93.8,80.8,71.3,75.4,71.1,69.3,98,75,45,30.08,29.94,9,1,14,0.00
2013-9-12,92.1,77.6,70.6,72.9,70.3,65.9,98,81,43,29.94,29.66,7,1,16,0.18
2013-9-13,82.2,70.9,59.2,69.7,62.1,52.7,98,77,39,29.81,29.60,7,1,16,0.01
2013-9-14,71.6,59.6,47.3,53.1,49.1,46.2,98,71,44,30.08,29.82,6,1,16,0.00
2013-9-15,78.3,59.3,39.8,57.3,50.0,39.5,100,76,42,30.17,30.03,5,0,10,0.00
2013-9-16,74.6,64.5,54.2,63.5,57.7,52.5,96,80,48,30.14,29.96,5,0,13,0.00
2013-9-17,69.8,57.2,44.2,52.8,44.5,39.3,95,67,35,30.34,30.15,9,1,14,0.00
2013-9-18,76.1,55.3,38.0,54.2,46.0,37.5,100,76,36,30.28,30.13,4,0,12,0.00
2013-9-19,81.4,60.7,42.1,57.8,50.7,41.8,100,75,36,30.13,30.02,3,0,7,0.00
2013-9-20,81.8,63.7,46.8,62.2,54.6,46.5,100,76,41,30.03,29.91,4,1,12,0.00
2013-9-21,80.9,66.3,49.5,68.7,58.9,49.0,100,81,46,29.94,29.62,11,2,18,0.81
2013-9-22,68.8,61.6,51.0,66.2,59.7,49.9,100,94,53,29.85,29.60,3,0,14,0.15
2013-9-23,70.3,55.5,44.2,48.8,45.6,42.1,98,74,41,29.99,29.85,10,1,16,0.01
2013-9-24,76.5,55.5,38.9,53.1,45.0,38.6,100,74,32,30.01,29.85,5,1,13,0.00
2013-9-25,80.9,58.6,43.5,58.6,49.7,43.1,100,78,36,29.89,29.81,3,0,9,0.01
2013-9-26,76.7,60.5,49.4,63.2,52.9,48.9,100,80,46,29.99,29.85,5,1,10,0.00
2013-9-27,73.5,60.7,50.1,61.3,53.3,49.6,100,80,49,30.17,30.00,2,0,11,0.00
2013-9-28,76.3,60.8,50.7,57.8,53.2,49.7,99,80,43,30.23,30.15,8,1,13,0.00
2013-9-29,75.3,60.6,49.2,59.1,52.6,48.1,100,79,47,30.14,30.00,5,1,15,0.01
2013-9-30,79.0,59.5,44.9,58.7,50.6,44.6,100,78,35,30.00,29.92,4,0,10,0.00
2013-10-1,84.7,64.1,47.6,62.7,56.1,47.2,100,80,42,29.98,29.89,4,0,12,0.00
2013-10-2,87.2,69.1,54.8,66.0,60.1,54.8,100,78,42,29.99,29.91,4,0,15,0.01
2013-10-3,88.4,70.1,55.7,68.4,62.0,55.4,100,80,45,30.04,29.97,2,0,9,0.00
2013-10-4,93.8,71.6,57.3,69.1,63.2,57.3,100,80,36,30.01,29.92,3,0,7,0.01
2013-10-5,94.7,74.1,60.7,70.3,65.0,60.6,100,78,34,30.01,29.92,3,0,7,0.00
2013-10-6,90.7,74.9,65.0,73.0,65.8,63.0,100,78,41,29.97,29.88,7,1,15,0.00
2013-10-7,81.2,68.3,57.8,70.7,64.9,56.1,98,90,65,29.95,29.74,15,3,26,0.58
2013-10-8,65.0,55.0,45.8,55.2,49.3,45.5,100,83,54,30.20,29.97,6,1,15,0.01
2013-10-9,62.6,56.5,50.1,53.9,50.8,47.9,98,82,66,30.22,30.11,9,2,18,0.37
2013-10-10,62.4,57.7,55.0,62.4,57.2,53.9,100,98,96,30.10,29.86,11,2,16,1.55
2013-10-11,63.9,62.7,60.9,63.9,62.5,60.9,100,100,99,29.91,29.81,9,2,15,1.37
2013-10-12,69.3,62.7,59.9,62.2,60.4,58.4,98,93,75,30.07,29.89,10,2,17,0.87
2013-10-13,67.1,61.2,56.2,60.9,56.3,52.2,98,85,62,30.25,30.07,7,3,21,0.13
2013-10-14,70.3,58.1,49.5,56.3,52.8,48.7,97,84,57,30.25,30.15,6,1,10,0.00
2013-10-15,76.0,58.7,46.2,57.6,52.2,45.9,100,82,47,30.16,30.01,6,0,11,0.01
2013-10-16,73.9,63.4,57.3,62.4,59.2,54.4,97,87,65,30.00,29.86,3,0,5,0.00
2013-10-17,77.6,67.2,59.5,64.3,62.4,58.9,99,86,60,29.85,29.67,9,1,12,0.01
2013-10-18,71.1,58.6,44.3,60.9,46.8,43.2,96,68,38,29.94,29.70,6,1,18,0.01
2013-10-19,63.4,53.0,41.1,58.6,49.6,40.6,100,89,63,29.92,29.71,7,1,14,0.03
2013-10-20,66.9,53.2,40.5,55.4,40.4,35.0,97,65,33,30.03,29.76,10,1,17,0.00
2013-10-21,68.8,54.2,35.2,53.0,40.7,34.8,100,67,31,30.08,29.91,7,1,17,0.01
2013-10-22,72.0,55.4,46.1,53.6,47.6,43.6,99,78,40,29.91,29.73,3,0,14,0.00
2013-10-23,57.6,47.8,39.8,48.0,42.1,36.5,97,82,51,29.76,29.54,3,0,10,0.32
2013-10-24,53.6,44.0,34.7,39.3,32.6,25.7,95,67,34,30.02,29.77,9,1,19,0.00
2013-10-25,56.6,41.1,31.3,37.8,33.4,29.0,98,77,41,30.22,30.02,7,1,15,0.00
2013-10-26,58.0,43.0,27.6,40.6,31.4,26.9,99,69,34,30.21,29.87,12,2,20,0.01
2013-10-27,61.6,48.7,35.2,37.5,34.8,30.8,95,62,35,30.08,29.86,7,1,15,0.00
2013-10-28,70.3,47.7,31.2,48.3,39.0,30.5,99,77,37,30.20,30.07,3,0,7,0.00
2013-10-29,68.9,50.3,37.6,47.1,42.7,36.8,98,79,41,30.28,30.19,6,0,12,0.01
2013-10-30,61.3,51.6,43.3,58.2,49.8,42.8,99,94,80,30.23,30.10,4,0,10,0.04
2013-10-31,71.3,61.7,47.0,63.9,56.2,46.5,100,84,65,30.11,29.73,10,2,17,0.01
2013-11-1,70.6,66.3,59.3,63.7,61.6,58.5,98,85,75,29.70,29.54,13,4,29,0.10
2013-11-2,71.6,59.4,47.1,61.0,50.7,41.2,100,77,39,29.78,29.54,9,1,14,0.05
2013-11-3,56.5,46.9,36.8,42.8,34.0,22.9,92,64,30,30.36,29.79,10,2,22,0.00
2013-11-4,48.3,36.7,28.8,30.0,23.5,18.4,83,61,32,30.55,30.38,4,0,15,0.00
2013-11-5,61.2,46.6,34.7,46.1,39.8,30.4,95,79,55,30.52,30.39,5,1,13,0.00
2013-11-6,71.8,55.6,38.3,55.7,47.6,37.5,99,77,47,30.39,30.00,7,1,13,0.00
2013-11-7,63.1,56.5,45.7,60.8,51.7,33.7,95,84,62,29.99,29.74,9,2,17,0.04
2013-11-8,51.6,42.0,29.5,32.7,26.9,22.8,86,57,34,30.22,29.94,13,2,22,0.00
2013-11-9,54.5,40.4,25.3,36.5,29.7,24.1,98,70,36,30.27,29.97,6,1,17,0.00
2013-11-10,64.0,49.7,38.0,37.7,32.0,26.5,84,54,28,30.10,29.85,17,2,24,0.00
2013-11-11,57.2,46.8,31.0,38.7,31.5,27.6,87,57,36,30.21,29.94,5,1,19,0.00
2013-11-12,51.1,40.6,27.5,39.7,25.0,14.0,79,54,38,30.27,29.89,10,2,26,0.00
2013-11-13,44.5,32.0,23.5,24.6,18.1,11.9,84,59,32,30.35,30.27,14,2,27,0.00
2013-11-14,58.7,39.8,22.9,32.1,22.2,13.5,90,57,17,30.29,30.15,6,1,14,0.00
2013-11-15,63.5,43.3,29.3,33.9,31.0,27.0,95,66,25,30.20,30.11,4,0,10,0.00
2013-11-16,51.4,47.8,39.8,48.8,45.6,34.5,98,92,80,30.25,30.17,4,0,11,0.19
2013-11-17,68.6,59.4,48.9,60.8,54.1,47.2,97,84,63,30.17,29.73,7,2,14,0.00
2013-11-18,69.1,60.9,51.3,62.9,40.9,25.4,93,54,23,29.79,29.60,11,3,23,0.23
2013-11-19,51.0,44.8,33.5,29.2,26.3,23.5,67,49,37,30.28,29.80,11,3,23,0.00
2013-11-20,47.3,34.9,28.1,28.3,24.3,21.8,89,67,42,30.47,30.27,6,1,14,0.00
2013-11-21,55.6,42.4,28.1,43.9,35.7,25.0,89,78,62,30.48,30.33,5,1,10,0.00
2013-11-22,60.2,53.2,45.4,53.7,49.6,42.5,98,88,73,30.32,29.90,6,0,13,0.04
2013-11-23,54.4,45.4,33.2,53.3,28.8,12.6,96,54,32,30.05,29.90,15,4,23,0.00
2013-11-24,33.1,28.5,24.5,12.9,4.1,-2.8,55,36,24,30.41,30.05,24,5,33,0.00
2013-11-25,37.0,27.6,16.9,19.7,13.1,9.5,83,56,33,30.48,30.29,5,1,13,0.00
2013-11-26,59.8,39.4,30.4,59.2,32.7,20.1,98,78,50,30.28,29.50,10,2,24,0.69
2013-11-27,64.3,45.7,31.3,63.9,42.8,18.2,99,90,56,29.86,29.35,23,5,26,1.11
2013-11-28,39.2,31.5,24.5,24.2,17.4,14.6,83,57,38,30.41,29.88,10,2,19,0.00
2013-11-29,43.9,31.5,20.6,25.5,21.1,18.1,94,68,41,30.65,30.39,5,1,12,0.00
2013-11-30,45.4,32.9,21.9,32.0,24.4,16.4,89,71,51,30.64,30.29,5,0,10,0.00
2013-12-1,51.3,36.5,24.4,33.5,29.8,23.2,97,79,48,30.28,29.95,2,0,7,0.00
2013-12-2,50.7,39.4,29.0,37.3,33.6,27.2,95,81,58,29.94,29.79,3,0,7,0.00
2013-12-3,58.0,43.2,33.4,39.7,34.4,31.3,93,74,41,29.93,29.78,5,0,9,0.00
2013-12-4,56.9,47.6,33.7,50.7,42.9,31.9,94,84,65,30.02,29.91,4,0,10,0.00
2013-12-5,62.4,56.6,49.4,60.7,55.0,48.8,99,94,83,30.01,29.88,11,2,15,0.00
2013-12-6,62.7,52.6,39.2,61.2,51.3,38.2,98,95,90,30.08,29.82,12,3,18,0.59
2013-12-7,43.6,36.4,28.1,38.3,31.3,24.3,97,83,59,30.43,30.02,12,2,18,0.33
2013-12-8,32.7,29.7,25.6,31.9,25.1,19.1,97,83,62,30.49,30.18,6,1,12,0.00
2013-12-9,37.2,34.4,32.5,36.5,33.7,32.0,99,97,95,30.17,29.93,4,0,8,0.26
2013-12-10,35.2,33.2,30.4,34.4,30.7,18.5,98,91,56,30.13,29.88,5,1,11,0.16
2013-12-11,41.5,31.0,23.3,21.7,19.3,16.8,92,64,39,30.33,30.14,6,1,14,0.06
2013-12-12,31.8,26.5,21.0,21.7,13.8,8.2,95,60,41,30.31,30.15,10,2,16,0.00
2013-12-13,42.5,30.2,19.9,23.6,17.7,12.9,87,63,33,30.25,30.13,14,1,17,0.01
2013-12-14,50.4,37.6,28.7,50.1,33.0,23.0,99,84,61,30.27,29.56,13,2,19,0.71
2013-12-15,47.1,38.3,32.7,39.0,31.1,21.2,98,77,56,29.86,29.51,17,3,23,0.00
2013-12-16,36.6,32.2,26.6,24.6,20.3,14.8,79,62,49,30.14,29.85,6,2,13,0.00
2013-12-17,38.5,33.5,31.0,35.6,28.3,20.5,94,82,64,30.11,29.85,7,1,11,0.06
2013-12-18,39.8,31.0,24.1,29.0,22.5,17.2,93,73,41,30.15,29.87,12,2,20,0.01
2013-12-19,56.7,40.5,22.9,31.3,27.2,20.4,93,63,34,30.14,30.01,10,1,16,0.00
2013-12-20,58.4,50.9,42.8,50.6,38.4,29.8,83,63,49,30.05,29.94,7,2,16,0.00
2013-12-21,68.9,60.7,52.3,58.6,51.5,46.9,83,72,56,29.95,29.86,15,4,23,0.00
2013-12-22,69.1,63.8,61.5,62.8,60.0,58.0,96,88,79,29.95,29.79,18,6,24,0.26
2013-12-23,63.9,56.0,40.2,63.3,53.2,29.4,98,90,65,30.11,29.85,11,3,24,0.39
2013-12-24,41.3,36.3,25.6,29.2,22.9,7.2,74,59,42,30.34,30.08,13,4,24,0.00
2013-12-25,36.3,25.9,18.6,15.8,11.7,9.3,85,56,36,30.48,30.34,5,1,16,0.00
2013-12-26,43.9,28.4,17.2,27.5,20.7,14.8,95,76,44,30.32,30.13,4,1,12,0.00
2013-12-27,48.5,34.5,22.7,29.1,21.8,16.1,93,65,28,30.34,30.24,5,1,15,0.00
2013-12-28,56.6,38.2,26.3,32.0,27.4,24.2,93,69,32,30.25,30.05,8,1,13,0.00
2013-12-29,53.5,45.4,41.6,53.2,40.6,30.6,99,84,55,30.05,29.40,13,3,23,1.04
2013-12-30,49.1,39.1,28.7,40.0,31.2,18.6,96,74,57,30.11,29.73,13,2,18,0.00
2013-12-31,43.3,33.8,26.4,27.9,19.6,15.8,77,56,44,30.26,30.02,13,2,20,0.00
2014-1-1,44.9,31.7,22.4,26.4,21.6,17.8,88,69,40,30.35,30.08,6,1,14,0.00
2014-1-2,37.8,32.0,26.7,35.4,30.1,25.5,97,93,86,30.07,29.50,4,1,13,0.00